createdAt,value
2023-03-17T00:01:14.610Z,100.00
2023-03-17T00:03:42.921Z,100.00
2023-03-17T00:06:16.800Z,100.00
2023-03-17T00:08:45.831Z,100.00
2023-03-17T00:11:17.553Z,100.00
2023-03-17T00:13:46.244Z,100.00
2023-03-17T00:16:20.107Z,100.00
2023-03-17T00:18:47.844Z,100.00
2023-03-17T00:21:16.735Z,100.00
2023-03-17T00:23:51.880Z,100.00
2023-03-17T00:26:19.739Z,100.00
2023-03-17T00:28:46.382Z,100.00
2023-03-17T00:31:15.741Z,100.00
2023-03-17T00:33:45.277Z,100.00
2023-03-17T00:36:17.976Z,100.00
2023-03-17T00:38:46.089Z,100.00
2023-03-17T00:41:13.323Z,100.00
2023-03-17T00:43:40.943Z,100.00
2023-03-17T00:46:21.978Z,100.00
2023-03-17T00:48:48.904Z,99.92
2023-03-17T00:51:18.388Z,99.42
2023-03-17T00:53:45.862Z,98.78
2023-03-17T00:56:21.121Z,98.41
2023-03-17T00:58:48.942Z,97.83
2023-03-17T01:01:16.047Z,97.46
2023-03-17T01:03:42.642Z,97.13
2023-03-17T01:06:12.783Z,96.12
2023-03-17T01:08:41.079Z,96.34
2023-03-17T01:11:18.828Z,96.23
2023-03-17T01:13:46.656Z,96.12
2023-03-17T01:16:14.152Z,96.29
2023-03-17T01:18:41.134Z,95.36
2023-03-17T01:21:08.403Z,95.25
2023-03-17T01:23:35.002Z,95.96
2023-03-17T01:26:01.731Z,94.83
2023-03-17T01:28:28.494Z,95.33
2023-03-17T01:30:55.542Z,94.67
2023-03-17T01:33:22.284Z,93.64
2023-03-17T01:35:50.700Z,93.83
2023-03-17T01:38:17.576Z,94.86
2023-03-17T01:40:48.095Z,95.74
2023-03-17T01:43:17.705Z,95.59
2023-03-17T01:46:14.940Z,95.89
2023-03-17T01:48:46.568Z,94.73
2023-03-17T01:51:18.952Z,95.51
2023-03-17T01:53:49.018Z,94.91
2023-03-17T01:56:16.690Z,94.59
2023-03-17T01:58:45.621Z,94.65
2023-03-17T02:01:12.308Z,95.13
2023-03-17T02:03:39.051Z,94.84
2023-03-17T02:06:07.365Z,93.65
2023-03-17T02:08:33.929Z,94.09
2023-03-17T02:11:02.187Z,93.90
2023-03-17T02:13:29.413Z,93.65
2023-03-17T02:15:57.005Z,93.66
2023-03-17T02:18:24.121Z,93.34
2023-03-17T02:20:50.901Z,93.59
2023-03-17T02:23:24.971Z,92.82
2023-03-17T02:25:53.607Z,92.27
2023-03-17T02:28:26.053Z,92.71
2023-03-17T02:30:52.872Z,92.76
2023-03-17T02:33:19.687Z,93.25
2023-03-17T02:35:47.057Z,92.83
2023-03-17T02:38:13.627Z,93.66
2023-03-17T02:40:40.699Z,93.92
2023-03-17T02:43:07.211Z,92.96
2023-03-17T02:45:33.738Z,93.00
2023-03-17T02:48:01.180Z,94.39
2023-03-17T02:50:29.160Z,94.67
2023-03-17T02:52:56.192Z,94.73
2023-03-17T02:55:23.047Z,94.92
2023-03-17T02:57:49.609Z,94.52
2023-03-17T03:00:16.511Z,94.09
2023-03-17T03:02:43.359Z,93.29
2023-03-17T03:05:10.871Z,93.35
2023-03-17T03:07:37.527Z,93.06
2023-03-17T03:10:05.574Z,92.71
2023-03-17T03:12:32.145Z,92.49
2023-03-17T03:14:58.969Z,91.53
2023-03-17T03:17:25.523Z,90.67
2023-03-17T03:19:52.366Z,90.58
2023-03-17T03:22:18.946Z,90.75
2023-03-17T03:24:45.595Z,91.49
2023-03-17T03:27:12.159Z,89.71
2023-03-17T03:29:38.824Z,89.58
2023-03-17T03:32:05.723Z,89.88
2023-03-17T03:34:32.327Z,89.19
2023-03-17T03:36:58.859Z,89.31
2023-03-17T03:39:25.795Z,90.14
2023-03-17T03:41:52.330Z,89.58
2023-03-17T03:44:19.064Z,88.40
2023-03-17T03:46:45.794Z,88.97
2023-03-17T03:49:12.480Z,88.96
2023-03-17T03:51:38.993Z,88.87
2023-03-17T03:54:05.714Z,88.79
2023-03-17T03:56:32.645Z,89.10
2023-03-17T03:58:59.157Z,89.30
2023-03-17T04:01:25.677Z,88.75
2023-03-17T04:03:52.194Z,88.70
2023-03-17T04:06:18.841Z,88.26
2023-03-17T04:08:45.862Z,88.78
2023-03-17T04:11:12.473Z,88.19
2023-03-17T04:13:39.064Z,89.25
2023-03-17T04:16:06.222Z,87.60
2023-03-17T04:18:32.830Z,87.31
2023-03-17T04:20:59.774Z,88.17
2023-03-17T04:23:26.329Z,89.14
2023-03-17T04:25:54.081Z,90.10
2023-03-17T04:28:22.492Z,89.92
2023-03-17T04:30:49.138Z,89.74
2023-03-17T04:33:15.643Z,88.65
2023-03-17T04:35:42.380Z,89.12
2023-03-17T04:38:11.803Z,87.83
2023-03-17T04:40:38.381Z,87.07
2023-03-17T04:43:04.928Z,87.47
2023-03-17T04:45:31.619Z,87.18
2023-03-17T04:47:58.196Z,86.80
2023-03-17T04:50:25.146Z,87.56
2023-03-17T04:52:52.050Z,88.91
2023-03-17T04:55:18.681Z,89.34
2023-03-17T04:57:45.318Z,87.58
2023-03-17T05:00:13.056Z,88.41
2023-03-17T05:02:39.729Z,88.15
2023-03-17T05:05:06.698Z,89.25
2023-03-17T05:07:34.218Z,89.23
2023-03-17T05:10:02.190Z,88.09
2023-03-17T05:12:28.780Z,87.40
2023-03-17T05:14:55.504Z,88.61
2023-03-17T05:17:22.238Z,87.41
2023-03-17T05:19:48.759Z,87.37
2023-03-17T05:22:15.583Z,87.74
2023-03-17T05:24:42.304Z,87.68
2023-03-17T05:27:08.964Z,86.27
2023-03-17T05:29:35.566Z,86.49
2023-03-17T05:32:02.110Z,85.14
2023-03-17T05:34:28.648Z,83.56
2023-03-17T05:36:55.454Z,83.21
2023-03-17T05:39:22.076Z,84.03
2023-03-17T05:41:48.671Z,84.72
2023-03-17T05:44:16.487Z,84.77
2023-03-17T05:46:43.108Z,83.83
2023-03-17T05:49:10.146Z,85.05
2023-03-17T05:51:37.129Z,85.42
2023-03-17T05:54:04.222Z,84.07
2023-03-17T05:56:33.873Z,83.81
2023-03-17T05:59:01.691Z,83.87
2023-03-17T06:01:28.881Z,85.23
2023-03-17T06:03:55.826Z,83.26
2023-03-17T06:06:24.579Z,83.18
2023-03-17T06:08:51.777Z,84.87
2023-03-17T06:11:20.658Z,85.25
2023-03-17T06:13:47.795Z,84.71
2023-03-17T06:16:14.665Z,84.80
2023-03-17T06:18:41.535Z,83.43
2023-03-17T06:21:08.148Z,81.98
2023-03-17T06:23:34.785Z,81.85
2023-03-17T06:26:01.568Z,80.94
2023-03-17T06:28:28.184Z,80.96
2023-03-17T06:30:54.773Z,79.76
2023-03-17T06:33:21.979Z,80.31
2023-03-17T06:35:48.637Z,79.67
2023-03-17T06:38:15.246Z,80.64
2023-03-17T06:40:41.912Z,79.48
2023-03-17T06:43:08.527Z,80.74
2023-03-17T06:45:35.733Z,80.78
2023-03-17T06:48:02.352Z,80.67
2023-03-17T06:50:29.075Z,79.55
2023-03-17T06:52:56.044Z,79.91
2023-03-17T06:55:22.797Z,79.35
2023-03-17T06:57:51.181Z,80.01
2023-03-17T07:00:19.259Z,77.74
2023-03-17T07:02:46.241Z,75.52
2023-03-17T07:05:14.004Z,76.43
2023-03-17T07:07:41.135Z,77.85
2023-03-17T07:10:10.406Z,77.10
2023-03-17T07:12:37.790Z,76.17
2023-03-17T07:15:04.433Z,75.27
2023-03-17T07:17:31.109Z,75.96
2023-03-17T07:19:57.678Z,75.69
2023-03-17T07:22:24.265Z,74.82
2023-03-17T07:24:51.959Z,74.54
2023-03-17T07:27:21.525Z,75.16
2023-03-17T07:29:49.329Z,75.59
2023-03-17T07:32:15.902Z,74.03
2023-03-17T07:34:42.754Z,73.97
2023-03-17T07:37:10.374Z,74.52
2023-03-17T07:39:36.935Z,74.65
2023-03-17T07:42:03.617Z,75.57
2023-03-17T07:44:30.620Z,72.70
2023-03-17T07:46:57.450Z,71.36
2023-03-17T07:49:40.121Z,72.39
2023-03-17T07:52:09.549Z,72.42
2023-03-17T07:54:37.645Z,72.95
2023-03-17T07:57:05.494Z,71.59
2023-03-17T07:59:32.692Z,72.96
2023-03-17T08:02:01.349Z,70.92
2023-03-17T08:04:28.113Z,67.88
2023-03-17T08:06:54.821Z,70.42
2023-03-17T08:09:25.048Z,69.91
2023-03-17T08:11:51.800Z,69.35
2023-03-17T08:14:18.820Z,69.71
2023-03-17T08:16:45.508Z,69.96
2023-03-17T08:19:12.322Z,70.89
2023-03-17T08:21:38.927Z,69.63
2023-03-17T08:24:05.950Z,70.67
2023-03-17T08:26:32.682Z,69.95
2023-03-17T08:28:59.694Z,68.91
2023-03-17T08:31:26.391Z,67.49
2023-03-17T08:33:54.686Z,69.00
2023-03-17T08:36:21.941Z,65.53
2023-03-17T08:38:48.900Z,68.21
2023-03-17T08:41:18.813Z,67.80
2023-03-17T08:43:46.082Z,67.75
2023-03-17T08:46:17.079Z,68.04
2023-03-17T08:48:45.303Z,66.48
2023-03-17T08:51:12.488Z,66.03
2023-03-17T08:53:39.824Z,65.79
2023-03-17T08:56:07.121Z,64.31
2023-03-17T08:58:35.474Z,65.02
2023-03-17T09:01:04.509Z,65.18
2023-03-17T09:03:32.712Z,63.50
2023-03-17T09:06:00.389Z,63.19
2023-03-17T09:08:27.980Z,61.41
2023-03-17T09:10:55.131Z,62.14
2023-03-17T09:13:22.774Z,61.12
2023-03-17T09:15:51.867Z,60.17
2023-03-17T09:18:21.927Z,57.68
2023-03-17T09:20:48.859Z,56.50
2023-03-17T09:23:16.002Z,53.69
2023-03-17T09:25:43.587Z,53.63
2023-03-17T09:28:12.322Z,52.75
2023-03-17T09:30:45.628Z,52.75
2023-03-17T09:33:13.640Z,54.69
2023-03-17T09:35:41.240Z,55.80
2023-03-17T09:38:09.097Z,55.28
2023-03-17T09:40:53.741Z,55.60
2023-03-17T09:43:26.111Z,60.27
2023-03-17T09:45:53.165Z,53.86
2023-03-17T09:49:01.112Z,56.10
2023-03-17T09:51:29.760Z,53.75
2023-03-17T09:54:00.432Z,54.87
2023-03-17T09:56:30.301Z,53.08
2023-03-17T09:59:30.942Z,51.28
2023-03-17T10:01:57.832Z,54.21
2023-03-17T10:04:25.017Z,52.23
2023-03-17T10:06:57.831Z,52.10
2023-03-17T10:09:27.046Z,50.01
2023-03-17T10:12:20.269Z,52.71
2023-03-17T10:14:49.491Z,51.81
2023-03-17T10:17:20.335Z,50.06
2023-03-17T10:20:05.776Z,51.85
2023-03-17T10:22:44.602Z,51.60
2023-03-17T10:25:19.570Z,51.88
2023-03-17T10:28:24.662Z,48.39
2023-03-17T10:30:51.484Z,47.48
2023-03-17T10:33:18.733Z,45.21
2023-03-17T10:35:45.582Z,43.32
2023-03-17T10:38:22.578Z,50.83
2023-03-17T10:41:07.260Z,49.25
2023-03-17T10:43:50.400Z,47.96
2023-03-17T10:46:25.758Z,46.53
2023-03-17T10:48:57.108Z,50.50
2023-03-17T10:51:32.755Z,47.47
2023-03-17T10:54:09.613Z,46.44
2023-03-17T10:56:39.994Z,44.80
2023-03-17T10:59:16.427Z,51.82
2023-03-17T11:01:54.670Z,48.35
2023-03-17T11:04:41.881Z,50.64
2023-03-17T11:07:15.479Z,45.10
2023-03-17T11:09:42.390Z,46.67
2023-03-17T11:12:34.352Z,48.70
2023-03-17T11:15:04.863Z,45.33
2023-03-17T11:17:37.629Z,46.17
2023-03-17T11:20:33.562Z,47.59
2023-03-17T11:23:17.973Z,43.63
2023-03-17T11:25:49.678Z,45.81
2023-03-17T11:28:20.675Z,46.38
2023-03-17T11:31:13.072Z,42.71
2023-03-17T11:33:57.347Z,46.04
2023-03-17T11:37:00.163Z,43.40
2023-03-17T11:39:31.361Z,48.87
2023-03-17T11:42:25.929Z,46.85
2023-03-17T11:44:55.516Z,46.46
2023-03-17T11:47:54.659Z,46.24
2023-03-17T11:51:12.549Z,45.48
2023-03-17T11:53:47.959Z,45.96
2023-03-17T11:56:21.862Z,45.62
2023-03-17T11:58:56.379Z,43.67
2023-03-17T12:01:28.989Z,43.05
2023-03-17T12:04:20.583Z,43.46
2023-03-17T12:06:57.783Z,44.78
2023-03-17T12:09:30.774Z,43.68
2023-03-17T12:11:58.844Z,43.65
2023-03-17T12:15:07.721Z,44.13
2023-03-17T12:17:44.667Z,43.82
2023-03-17T12:20:30.780Z,44.10
2023-03-17T12:23:45.379Z,43.85
2023-03-17T12:26:16.451Z,42.97
2023-03-17T12:29:02.270Z,43.44
2023-03-17T12:31:33.918Z,43.20
2023-03-17T12:34:17.887Z,43.48
2023-03-17T12:36:44.923Z,41.94
2023-03-17T12:39:27.280Z,43.25
2023-03-17T12:42:01.612Z,47.15
2023-03-17T12:45:18.718Z,42.70
2023-03-17T12:48:06.174Z,41.54
2023-03-17T12:50:38.715Z,39.93
2023-03-17T12:53:17.444Z,42.76
2023-03-17T12:55:47.299Z,40.75
2023-03-17T12:58:23.749Z,44.32
2023-03-17T13:01:24.336Z,40.64
2023-03-17T13:04:26.479Z,41.83
2023-03-17T13:07:17.293Z,40.88
2023-03-17T13:09:56.185Z,41.36
2023-03-17T13:12:44.463Z,39.64
2023-03-17T13:15:48.289Z,41.08
2023-03-17T13:18:15.433Z,40.52
2023-03-17T13:21:02.234Z,40.83
2023-03-17T13:23:39.663Z,40.91
2023-03-17T13:26:06.717Z,40.08
2023-03-17T13:28:40.749Z,39.66
2023-03-17T13:31:32.158Z,39.51
2023-03-17T13:34:13.100Z,40.13
2023-03-17T13:36:48.526Z,39.28
2023-03-17T13:39:46.716Z,41.01
2023-03-17T13:42:21.548Z,41.46
2023-03-17T13:44:56.916Z,42.75
2023-03-17T13:47:23.657Z,41.73
2023-03-17T13:49:53.048Z,43.92
2023-03-17T13:52:41.183Z,44.48
2023-03-17T13:55:23.477Z,44.75
2023-03-17T13:58:17.723Z,45.59
2023-03-17T14:00:50.770Z,46.15
2023-03-17T14:03:33.845Z,45.64
2023-03-17T14:06:06.383Z,45.85
2023-03-17T14:08:39.291Z,47.44
2023-03-17T14:11:22.338Z,46.89
2023-03-17T14:14:26.093Z,47.25
2023-03-17T14:17:02.831Z,47.12
2023-03-17T14:19:31.206Z,46.56
2023-03-17T14:22:19.889Z,46.06
2023-03-17T14:24:51.872Z,46.95
2023-03-17T14:27:18.811Z,46.24
2023-03-17T14:29:45.396Z,44.71
2023-03-17T14:32:18.308Z,45.40
2023-03-17T14:34:55.614Z,45.93
2023-03-17T14:37:23.383Z,44.93
2023-03-17T14:39:53.077Z,43.77
2023-03-17T14:42:31.105Z,45.60
2023-03-17T14:45:06.607Z,44.96
2023-03-17T14:47:40.021Z,45.18
2023-03-17T14:50:17.538Z,44.84
2023-03-17T14:52:44.667Z,42.81
2023-03-17T14:55:14.967Z,42.25
2023-03-17T14:57:41.957Z,42.98
2023-03-17T15:00:34.096Z,41.24
2023-03-17T15:03:05.770Z,41.53
2023-03-17T15:05:35.807Z,39.90
2023-03-17T15:08:03.832Z,40.20
2023-03-17T15:10:43.112Z,42.11
2023-03-17T15:13:12.332Z,43.11
2023-03-17T15:15:41.601Z,42.70
2023-03-17T15:18:13.345Z,41.17
2023-03-17T15:20:43.375Z,41.55
2023-03-17T15:23:25.021Z,41.81
2023-03-17T15:25:56.626Z,42.50
2023-03-17T15:28:28.533Z,42.91
2023-03-17T15:31:11.385Z,42.33
2023-03-17T15:33:39.822Z,42.48
2023-03-17T15:36:07.711Z,43.53
2023-03-17T15:38:34.462Z,44.21
2023-03-17T15:41:01.106Z,45.71
2023-03-17T15:43:27.706Z,45.97
2023-03-17T15:46:07.450Z,47.25
2023-03-17T15:48:36.409Z,47.60
2023-03-17T15:51:03.401Z,48.03
2023-03-17T15:53:32.069Z,47.64
2023-03-17T15:55:59.298Z,48.23
2023-03-17T15:58:26.252Z,48.78
2023-03-17T16:00:57.057Z,49.54
2023-03-17T16:03:23.663Z,49.03
2023-03-17T16:05:50.369Z,49.20
2023-03-17T16:08:18.091Z,49.46
2023-03-17T16:10:45.465Z,48.63
2023-03-17T16:13:11.988Z,48.69
2023-03-17T16:15:41.705Z,48.60
2023-03-17T16:18:18.209Z,48.98
2023-03-17T16:20:47.765Z,48.99
2023-03-17T16:23:17.894Z,49.36
2023-03-17T16:25:45.984Z,49.88
2023-03-17T16:28:19.020Z,51.10
2023-03-17T16:30:46.690Z,51.63
2023-03-17T16:33:19.705Z,51.59
2023-03-17T16:35:48.831Z,51.99
2023-03-17T16:38:20.880Z,51.98
2023-03-17T16:40:51.430Z,51.59
2023-03-17T16:43:27.453Z,50.88
2023-03-17T16:45:57.080Z,51.54
2023-03-17T16:48:24.325Z,51.12
2023-03-17T16:50:51.220Z,50.91
2023-03-17T16:53:18.016Z,51.88
2023-03-17T16:55:45.594Z,51.49
2023-03-17T16:58:17.699Z,51.25
2023-03-17T17:00:45.244Z,50.90
2023-03-17T17:03:12.245Z,51.42
2023-03-17T17:05:39.928Z,51.03
2023-03-17T17:08:06.761Z,52.05
2023-03-17T17:10:34.224Z,51.48
2023-03-17T17:13:02.390Z,50.51
2023-03-17T17:15:30.688Z,50.76
2023-03-17T17:18:02.087Z,50.22
2023-03-17T17:20:38.579Z,50.63
2023-03-17T17:23:10.115Z,50.91
2023-03-17T17:25:36.729Z,51.35
2023-03-17T17:28:03.565Z,51.56
2023-03-17T17:30:31.308Z,51.53
2023-03-17T17:32:59.799Z,51.54
2023-03-17T17:35:30.721Z,52.28
2023-03-17T17:37:59.379Z,51.61
2023-03-17T17:40:26.819Z,53.35
2023-03-17T17:42:53.697Z,53.92
2023-03-17T17:45:21.180Z,53.76
2023-03-17T17:47:48.331Z,54.06
2023-03-17T17:50:23.525Z,53.80
2023-03-17T17:52:50.741Z,53.47
2023-03-17T17:55:17.560Z,54.46
2023-03-17T17:57:44.191Z,53.66
2023-03-17T18:00:16.869Z,53.86
2023-03-17T18:02:44.039Z,54.90
2023-03-17T18:05:12.473Z,54.52
2023-03-17T18:07:39.813Z,53.83
2023-03-17T18:10:07.225Z,54.10
2023-03-17T18:12:33.711Z,53.82
2023-03-17T18:15:00.280Z,54.04
2023-03-17T18:17:27.301Z,54.11
2023-03-17T18:19:54.178Z,54.75
2023-03-17T18:22:21.732Z,54.79
2023-03-17T18:24:49.390Z,54.78
2023-03-17T18:27:16.840Z,54.68
2023-03-17T18:29:43.672Z,54.84
2023-03-17T18:32:11.426Z,55.19
2023-03-17T18:34:43.516Z,56.30
2023-03-17T18:37:15.401Z,55.36
2023-03-17T18:39:42.655Z,55.45
2023-03-17T18:42:09.793Z,56.15
2023-03-17T18:44:36.890Z,56.03
2023-03-17T18:47:03.986Z,55.76
2023-03-17T18:49:30.746Z,56.16
2023-03-17T18:51:59.182Z,56.28
2023-03-17T18:54:27.735Z,56.04
2023-03-17T18:56:54.944Z,55.35
2023-03-17T18:59:21.591Z,55.54
2023-03-17T19:01:48.179Z,55.67
2023-03-17T19:04:14.821Z,55.92
2023-03-17T19:06:42.685Z,56.09
2023-03-17T19:09:10.488Z,56.30
2023-03-17T19:11:39.241Z,56.63
2023-03-17T19:14:07.608Z,57.09
2023-03-17T19:16:35.225Z,57.11
2023-03-17T19:19:02.228Z,57.20
2023-03-17T19:21:28.809Z,55.98
2023-03-17T19:23:59.877Z,56.31
2023-03-17T19:26:27.278Z,57.04
2023-03-17T19:28:56.264Z,56.32
2023-03-17T19:31:24.861Z,56.30
2023-03-17T19:33:51.896Z,56.67
2023-03-17T19:36:18.739Z,57.48
2023-03-17T19:38:45.814Z,57.17
2023-03-17T19:41:13.541Z,56.86
2023-03-17T19:43:41.623Z,57.16
2023-03-17T19:46:11.189Z,56.89
2023-03-17T19:48:38.483Z,57.18
2023-03-17T19:51:05.288Z,57.03
2023-03-17T19:53:31.959Z,56.96
2023-03-17T19:55:58.569Z,57.43
2023-03-17T19:58:25.289Z,57.52
2023-03-17T20:00:51.879Z,57.40
2023-03-17T20:03:18.934Z,57.95
2023-03-17T20:05:46.528Z,57.50
2023-03-17T20:08:14.609Z,57.41
2023-03-17T20:10:41.354Z,57.84
2023-03-17T20:13:08.114Z,57.49
2023-03-17T20:15:35.122Z,57.70
2023-03-17T20:18:01.703Z,57.18
2023-03-17T20:20:28.360Z,57.35
2023-03-17T20:22:55.005Z,57.58
2023-03-17T20:25:21.877Z,57.76
2023-03-17T20:27:48.593Z,57.70
2023-03-17T20:30:16.138Z,57.42
2023-03-17T20:32:44.075Z,57.39
2023-03-17T20:35:11.080Z,57.37
2023-03-17T20:37:38.824Z,57.68
2023-03-17T20:40:08.632Z,57.64
2023-03-17T20:42:35.483Z,57.34
2023-03-17T20:45:03.544Z,57.27
2023-03-17T20:47:30.967Z,57.91
2023-03-17T20:49:58.950Z,58.22
2023-03-17T20:52:30.015Z,58.26
2023-03-17T20:54:56.923Z,58.71
2023-03-17T20:57:23.511Z,59.08
2023-03-17T20:59:51.338Z,60.01
2023-03-17T21:02:19.041Z,60.64
2023-03-17T21:04:48.137Z,61.02
2023-03-17T21:07:19.516Z,61.09
2023-03-17T21:09:46.798Z,61.43
2023-03-17T21:12:18.967Z,61.62
2023-03-17T21:14:48.292Z,61.58
2023-03-17T21:17:16.374Z,61.44
2023-03-17T21:19:43.341Z,60.83
2023-03-17T21:22:10.235Z,60.96
2023-03-17T21:24:38.499Z,61.13
2023-03-17T21:27:06.973Z,60.79
2023-03-17T21:29:34.769Z,60.76
2023-03-17T21:32:02.032Z,60.74
2023-03-17T21:34:30.774Z,60.31
2023-03-17T21:36:59.078Z,61.34
2023-03-17T21:39:28.983Z,61.24
2023-03-17T21:41:57.064Z,61.04
2023-03-17T21:44:23.632Z,61.31
2023-03-17T21:46:50.867Z,61.30
2023-03-17T21:49:18.799Z,61.00
2023-03-17T21:51:46.786Z,61.16
2023-03-17T21:54:14.539Z,60.97
2023-03-17T21:56:41.743Z,61.05
2023-03-17T21:59:11.087Z,61.23
2023-03-17T22:01:39.691Z,61.76
2023-03-17T22:04:07.310Z,61.41
2023-03-17T22:06:34.012Z,61.60
2023-03-17T22:09:00.862Z,61.46
2023-03-17T22:11:27.452Z,61.83
2023-03-17T22:13:54.003Z,62.32
2023-03-17T22:16:21.670Z,62.79
2023-03-17T22:18:48.646Z,63.12
2023-03-17T22:21:15.529Z,63.74
2023-03-17T22:23:42.545Z,63.95
2023-03-17T22:26:13.372Z,64.15
2023-03-17T22:28:41.000Z,64.67
2023-03-17T22:31:13.374Z,64.25
2023-03-17T22:33:40.716Z,64.61
2023-03-17T22:36:07.295Z,64.38
2023-03-17T22:38:34.435Z,64.29
2023-03-17T22:41:08.013Z,64.39
2023-03-17T22:43:36.632Z,64.43
2023-03-17T22:46:03.998Z,63.76
2023-03-17T22:48:32.658Z,65.20
2023-03-17T22:51:09.689Z,66.59
2023-03-17T22:53:37.404Z,66.98
2023-03-17T22:56:04.992Z,67.04
2023-03-17T22:58:32.060Z,67.56
2023-03-17T23:00:59.043Z,66.49
2023-03-17T23:03:26.934Z,65.80
2023-03-17T23:05:57.233Z,65.69
2023-03-17T23:08:24.358Z,64.95
2023-03-17T23:10:52.004Z,66.18
2023-03-17T23:13:20.163Z,67.04
2023-03-17T23:15:47.518Z,68.85
2023-03-17T23:18:14.134Z,68.96
2023-03-17T23:20:41.121Z,70.64
2023-03-17T23:23:09.054Z,70.87
2023-03-17T23:25:36.671Z,69.46
2023-03-17T23:28:04.117Z,69.55
2023-03-17T23:30:31.119Z,69.78
2023-03-17T23:32:58.176Z,70.05
2023-03-17T23:35:25.447Z,70.19
2023-03-17T23:37:52.115Z,70.89
2023-03-17T23:40:18.863Z,70.43
2023-03-17T23:42:49.030Z,70.32
2023-03-17T23:45:19.145Z,70.70
2023-03-17T23:47:47.176Z,71.01
2023-03-17T23:50:15.774Z,71.21
2023-03-17T23:52:43.298Z,72.58
2023-03-17T23:55:11.869Z,72.82
2023-03-17T23:57:39.128Z,73.38
